Budd Lake, NJ

7:26 PM EDT on August 24, 2016 (GMT -0400)
King Street | | Change Station

Elev 817 ft 40.90 °N, 74.71 °W | Updated 3 minutes ago

Clear
Clear
78.1 °F
Feels Like 80 °F
N
0.0
Wind Variable Wind from SSW

Today
High -- | Low -- °F
--% Chance of Precip.
Yesterday
High -- | Low -- °F
Precip. -- in
Pressure 30.15 in
Visibility 10.0 miles
Clouds Clear
Heat Index 80 °F
Dew Point 64 °F
Humidity 62%
Rainfall 0.00 in
Snow Depth Not available.
6:18 AM 7:43 PM
Waning Gibbous, 52% visible
METAR KSMQ 242253Z AUTO 00000KT 10SM CLR 28/16 A3015 RMK AO2 SLP208 T02780156
Pressure 30.15 in
Visibility 10.0 miles
Clouds Clear
Heat Index 80 °F
Dew Point 64 °F
Humidity 62%
Rainfall 0.00 in
Snow Depth Not available.
6:18 AM 7:43 PM
Waning Gibbous, 52% visible
METAR KSMQ 242253Z AUTO 00000KT 10SM CLR 28/16 A3015 RMK AO2 SLP208 T02780156

10-Day Weather Forecast

Almanac

Astronomy

Aug. 24, 2016 Rise Set
Actual Time
Civil Twilight
Nautical Twilight
Astronomical Twilight
Moon
Length of Visible Light
Length of Day
Tomorrow will be .
, % of the Moon is Illuminated

Today's Extremes

State Highs State Lows

Community

WunderPhotos

Upload Photos

1,934,731 photos uploaded!

WunderBlog® & News

Nearby

Air Quality

  Air Quality AQ Index Pollutant
Not available.

Snow Depth

Station Depth Elevation

Earthquake Activity

City Distance Mag. Time & Date
Minimum magnitude displayed is 2.5.

Coastal Water Temperatures

Place Temperature

Stations

Nearby Weather Stations

Station Location Temp. Windchill Dew Point Humidity Wind Precip. Elev Updated Type
                   

Watches & Warnings

There are currently no watches in effect.